sensor_id;sensor_type;location;lat;lon;timestamp;temperature;humidity
64226;DHT22;50545;56.064;26.178;2023-08-31T00:01:48;17.90;99.90
64226;DHT22;50545;56.064;26.178;2023-08-31T00:04:16;17.90;99.90
64226;DHT22;50545;56.064;26.178;2023-08-31T00:06:43;17.90;99.90
64226;DHT22;50545;56.064;26.178;2023-08-31T00:09:14;17.90;99.90
64226;DHT22;50545;56.064;26.178;2023-08-31T00:11:42;17.90;99.90
64226;DHT22;50545;56.064;26.178;2023-08-31T00:14:09;17.90;99.90
64226;DHT22;50545;56.064;26.178;2023-08-31T00:16:37;18.00;99.90
64226;DHT22;50545;56.064;26.178;2023-08-31T00:19:04;17.90;99.90
64226;DHT22;50545;56.064;26.178;2023-08-31T00:21:32;17.90;99.90
64226;DHT22;50545;56.064;26.178;2023-08-31T00:24:00;17.80;99.90
64226;DHT22;50545;56.064;26.178;2023-08-31T00:26:28;17.90;99.90
64226;DHT22;50545;56.064;26.178;2023-08-31T00:28:58;17.80;99.90
64226;DHT22;50545;56.064;26.178;2023-08-31T00:31:25;17.80;99.90
64226;DHT22;50545;56.064;26.178;2023-08-31T00:33:54;17.80;99.90
64226;DHT22;50545;56.064;26.178;2023-08-31T00:36:22;17.80;99.90
64226;DHT22;50545;56.064;26.178;2023-08-31T00:38:50;17.80;99.90
64226;DHT22;50545;56.064;26.178;2023-08-31T00:41:17;17.80;99.90
64226;DHT22;50545;56.064;26.178;2023-08-31T00:43:45;17.90;99.90
64226;DHT22;50545;56.064;26.178;2023-08-31T00:46:14;17.90;99.90
64226;DHT22;50545;56.064;26.178;2023-08-31T00:48:41;18.00;99.90
64226;DHT22;50545;56.064;26.178;2023-08-31T00:51:09;17.90;99.90
64226;DHT22;50545;56.064;26.178;2023-08-31T00:53:38;17.90;99.90
64226;DHT22;50545;56.064;26.178;2023-08-31T00:56:06;17.90;99.90
64226;DHT22;50545;56.064;26.178;2023-08-31T00:58:33;18.00;99.90
64226;DHT22;50545;56.064;26.178;2023-08-31T01:01:06;17.90;99.90
64226;DHT22;50545;56.064;26.178;2023-08-31T01:04:12;18.00;99.90
64226;DHT22;50545;56.064;26.178;2023-08-31T01:12:10;18.00;99.90
64226;DHT22;50545;56.064;26.178;2023-08-31T01:14:44;18.00;99.90
64226;DHT22;50545;56.064;26.178;2023-08-31T01:17:15;18.00;99.90
64226;DHT22;50545;56.064;26.178;2023-08-31T01:19:58;18.00;99.90
64226;DHT22;50545;56.064;26.178;2023-08-31T01:25:04;18.00;99.90
64226;DHT22;50545;56.064;26.178;2023-08-31T01:27:33;18.10;99.90
64226;DHT22;50545;56.064;26.178;2023-08-31T01:30:01;18.00;99.90
64226;DHT22;50545;56.064;26.178;2023-08-31T01:32:31;18.00;99.90
64226;DHT22;50545;56.064;26.178;2023-08-31T01:34:59;18.00;99.90
64226;DHT22;50545;56.064;26.178;2023-08-31T01:37:34;18.10;99.90
64226;DHT22;50545;56.064;26.178;2023-08-31T01:40:19;18.10;99.90
64226;DHT22;50545;56.064;26.178;2023-08-31T01:42:47;18.10;99.90
64226;DHT22;50545;56.064;26.178;2023-08-31T01:45:19;18.10;99.90
64226;DHT22;50545;56.064;26.178;2023-08-31T01:47:49;18.10;99.90
64226;DHT22;50545;56.064;26.178;2023-08-31T01:50:16;18.10;99.90
64226;DHT22;50545;56.064;26.178;2023-08-31T01:52:44;18.10;99.90
64226;DHT22;50545;56.064;26.178;2023-08-31T01:55:11;18.10;99.90
64226;DHT22;50545;56.064;26.178;2023-08-31T01:57:42;18.10;99.90
64226;DHT22;50545;56.064;26.178;2023-08-31T02:00:11;18.10;99.90
64226;DHT22;50545;56.064;26.178;2023-08-31T02:02:39;18.10;99.90
64226;DHT22;50545;56.064;26.178;2023-08-31T02:05:06;18.10;99.90
64226;DHT22;50545;56.064;26.178;2023-08-31T02:07:34;18.10;99.90
64226;DHT22;50545;56.064;26.178;2023-08-31T02:10:02;18.10;99.90
64226;DHT22;50545;56.064;26.178;2023-08-31T02:12:33;18.10;99.90
64226;DHT22;50545;56.064;26.178;2023-08-31T02:15:00;18.10;99.90
64226;DHT22;50545;56.064;26.178;2023-08-31T02:17:28;18.10;99.90
64226;DHT22;50545;56.064;26.178;2023-08-31T02:19:56;18.10;99.90
64226;DHT22;50545;56.064;26.178;2023-08-31T02:22:24;18.10;99.90
64226;DHT22;50545;56.064;26.178;2023-08-31T02:24:52;18.10;99.90
64226;DHT22;50545;56.064;26.178;2023-08-31T02:27:19;18.10;99.90
64226;DHT22;50545;56.064;26.178;2023-08-31T02:29:47;18.10;99.90
64226;DHT22;50545;56.064;26.178;2023-08-31T02:32:14;18.10;99.90
64226;DHT22;50545;56.064;26.178;2023-08-31T02:34:42;18.10;99.90
64226;DHT22;50545;56.064;26.178;2023-08-31T02:37:10;18.10;99.90
64226;DHT22;50545;56.064;26.178;2023-08-31T02:39:37;18.10;99.90
64226;DHT22;50545;56.064;26.178;2023-08-31T02:42:05;18.10;99.90
64226;DHT22;50545;56.064;26.178;2023-08-31T02:44:32;18.10;99.90
64226;DHT22;50545;56.064;26.178;2023-08-31T02:47:00;18.10;99.90
64226;DHT22;50545;56.064;26.178;2023-08-31T02:49:27;18.10;99.90
64226;DHT22;50545;56.064;26.178;2023-08-31T02:51:55;18.10;99.90
64226;DHT22;50545;56.064;26.178;2023-08-31T02:54:22;18.10;99.90
64226;DHT22;50545;56.064;26.178;2023-08-31T02:56:50;18.00;99.90
64226;DHT22;50545;56.064;26.178;2023-08-31T02:59:17;18.00;99.90
64226;DHT22;50545;56.064;26.178;2023-08-31T03:01:45;18.00;99.90
64226;DHT22;50545;56.064;26.178;2023-08-31T03:04:16;18.00;99.90
64226;DHT22;50545;56.064;26.178;2023-08-31T03:06:44;17.90;99.90
64226;DHT22;50545;56.064;26.178;2023-08-31T03:09:13;17.90;99.90
64226;DHT22;50545;56.064;26.178;2023-08-31T03:11:40;18.00;99.90
64226;DHT22;50545;56.064;26.178;2023-08-31T03:14:08;18.00;99.90
64226;DHT22;50545;56.064;26.178;2023-08-31T03:16:37;18.00;99.90
64226;DHT22;50545;56.064;26.178;2023-08-31T03:19:05;18.00;99.90
64226;DHT22;50545;56.064;26.178;2023-08-31T03:21:32;18.00;99.90
64226;DHT22;50545;56.064;26.178;2023-08-31T03:24:00;18.00;99.90
64226;DHT22;50545;56.064;26.178;2023-08-31T03:26:27;18.10;99.90
64226;DHT22;50545;56.064;26.178;2023-08-31T03:28:55;18.10;99.90
64226;DHT22;50545;56.064;26.178;2023-08-31T03:31:22;18.10;99.90
64226;DHT22;50545;56.064;26.178;2023-08-31T03:33:50;18.10;99.90
64226;DHT22;50545;56.064;26.178;2023-08-31T03:36:18;18.10;99.90
64226;DHT22;50545;56.064;26.178;2023-08-31T03:38:45;18.10;99.90
64226;DHT22;50545;56.064;26.178;2023-08-31T03:41:13;18.10;99.90
64226;DHT22;50545;56.064;26.178;2023-08-31T03:43:40;18.20;99.90
64226;DHT22;50545;56.064;26.178;2023-08-31T03:46:07;18.20;99.90
64226;DHT22;50545;56.064;26.178;2023-08-31T03:48:35;18.20;99.90
64226;DHT22;50545;56.064;26.178;2023-08-31T03:51:03;18.20;99.90
64226;DHT22;50545;56.064;26.178;2023-08-31T03:53:31;18.30;99.90
64226;DHT22;50545;56.064;26.178;2023-08-31T03:55:58;18.30;99.90
64226;DHT22;50545;56.064;26.178;2023-08-31T03:58:26;18.30;99.90
64226;DHT22;50545;56.064;26.178;2023-08-31T04:00:53;18.30;99.90
64226;DHT22;50545;56.064;26.178;2023-08-31T04:03:21;18.30;99.90
64226;DHT22;50545;56.064;26.178;2023-08-31T04:05:54;18.30;99.90
64226;DHT22;50545;56.064;26.178;2023-08-31T04:08:21;18.40;99.90
64226;DHT22;50545;56.064;26.178;2023-08-31T04:10:49;18.40;99.90
64226;DHT22;50545;56.064;26.178;2023-08-31T04:13:16;18.40;99.90
64226;DHT22;50545;56.064;26.178;2023-08-31T04:15:44;18.40;99.90
64226;DHT22;50545;56.064;26.178;2023-08-31T04:18:11;18.50;99.90
64226;DHT22;50545;56.064;26.178;2023-08-31T04:20:49;18.50;99.90
64226;DHT22;50545;56.064;26.178;2023-08-31T04:23:19;18.50;99.90
64226;DHT22;50545;56.064;26.178;2023-08-31T04:25:47;18.60;99.90
64226;DHT22;50545;56.064;26.178;2023-08-31T04:28:14;18.60;99.90
64226;DHT22;50545;56.064;26.178;2023-08-31T04:30:42;18.60;99.90
64226;DHT22;50545;56.064;26.178;2023-08-31T04:33:10;18.60;99.90
64226;DHT22;50545;56.064;26.178;2023-08-31T04:35:38;18.60;99.90
64226;DHT22;50545;56.064;26.178;2023-08-31T04:38:05;18.60;99.90
64226;DHT22;50545;56.064;26.178;2023-08-31T04:40:33;18.70;99.90
64226;DHT22;50545;56.064;26.178;2023-08-31T04:43:00;18.70;99.90
64226;DHT22;50545;56.064;26.178;2023-08-31T04:45:28;18.80;99.90
64226;DHT22;50545;56.064;26.178;2023-08-31T04:47:55;18.80;99.90
64226;DHT22;50545;56.064;26.178;2023-08-31T04:50:23;18.80;99.90
64226;DHT22;50545;56.064;26.178;2023-08-31T04:52:50;18.80;99.90
64226;DHT22;50545;56.064;26.178;2023-08-31T04:55:21;18.80;99.90
64226;DHT22;50545;56.064;26.178;2023-08-31T04:57:49;18.80;99.90
64226;DHT22;50545;56.064;26.178;2023-08-31T05:00:17;18.80;99.90
64226;DHT22;50545;56.064;26.178;2023-08-31T05:02:44;18.80;99.90
64226;DHT22;50545;56.064;26.178;2023-08-31T05:05:12;18.80;99.90
64226;DHT22;50545;56.064;26.178;2023-08-31T05:07:40;18.80;99.90
64226;DHT22;50545;56.064;26.178;2023-08-31T05:10:08;18.80;99.90
64226;DHT22;50545;56.064;26.178;2023-08-31T05:12:35;18.70;99.90
64226;DHT22;50545;56.064;26.178;2023-08-31T05:15:03;18.80;99.90
64226;DHT22;50545;56.064;26.178;2023-08-31T05:17:31;18.70;99.90
64226;DHT22;50545;56.064;26.178;2023-08-31T05:19:58;18.70;99.90
64226;DHT22;50545;56.064;26.178;2023-08-31T05:22:26;18.70;99.90
64226;DHT22;50545;56.064;26.178;2023-08-31T05:24:53;18.60;99.90
64226;DHT22;50545;56.064;26.178;2023-08-31T05:27:21;18.60;99.90
64226;DHT22;50545;56.064;26.178;2023-08-31T05:29:48;18.60;99.90
64226;DHT22;50545;56.064;26.178;2023-08-31T05:32:16;18.60;99.90
64226;DHT22;50545;56.064;26.178;2023-08-31T05:34:43;18.60;99.90
64226;DHT22;50545;56.064;26.178;2023-08-31T05:37:11;18.60;99.90
64226;DHT22;50545;56.064;26.178;2023-08-31T05:39:39;18.60;99.90
64226;DHT22;50545;56.064;26.178;2023-08-31T05:42:06;18.50;99.90
64226;DHT22;50545;56.064;26.178;2023-08-31T05:44:34;18.50;99.90
64226;DHT22;50545;56.064;26.178;2023-08-31T05:47:01;18.60;99.90
64226;DHT22;50545;56.064;26.178;2023-08-31T05:49:29;18.60;99.90
64226;DHT22;50545;56.064;26.178;2023-08-31T05:51:56;18.60;99.90
64226;DHT22;50545;56.064;26.178;2023-08-31T05:54:24;18.70;99.90
64226;DHT22;50545;56.064;26.178;2023-08-31T05:56:51;18.70;99.90
64226;DHT22;50545;56.064;26.178;2023-08-31T05:59:19;18.80;99.90
64226;DHT22;50545;56.064;26.178;2023-08-31T06:01:46;18.80;99.90
64226;DHT22;50545;56.064;26.178;2023-08-31T06:04:14;18.80;99.90
64226;DHT22;50545;56.064;26.178;2023-08-31T06:06:42;18.90;99.90
64226;DHT22;50545;56.064;26.178;2023-08-31T06:09:09;19.00;99.90
64226;DHT22;50545;56.064;26.178;2023-08-31T06:11:38;19.00;99.90
64226;DHT22;50545;56.064;26.178;2023-08-31T06:14:06;19.10;99.90
64226;DHT22;50545;56.064;26.178;2023-08-31T06:16:33;19.20;99.90
64226;DHT22;50545;56.064;26.178;2023-08-31T06:19:01;19.20;99.90
64226;DHT22;50545;56.064;26.178;2023-08-31T06:21:29;19.20;99.90
64226;DHT22;50545;56.064;26.178;2023-08-31T06:23:56;19.30;99.90
64226;DHT22;50545;56.064;26.178;2023-08-31T06:26:23;19.40;99.90
64226;DHT22;50545;56.064;26.178;2023-08-31T06:28:51;19.60;99.90
64226;DHT22;50545;56.064;26.178;2023-08-31T06:31:19;19.70;99.90
64226;DHT22;50545;56.064;26.178;2023-08-31T06:33:47;19.90;99.90
64226;DHT22;50545;56.064;26.178;2023-08-31T06:36:14;20.00;99.90
64226;DHT22;50545;56.064;26.178;2023-08-31T06:38:42;20.10;99.90
64226;DHT22;50545;56.064;26.178;2023-08-31T06:41:09;20.20;99.90
64226;DHT22;50545;56.064;26.178;2023-08-31T06:43:37;20.20;99.90
64226;DHT22;50545;56.064;26.178;2023-08-31T06:46:04;20.30;99.90
64226;DHT22;50545;56.064;26.178;2023-08-31T06:48:50;20.30;99.90
64226;DHT22;50545;56.064;26.178;2023-08-31T06:51:18;20.30;99.90
64226;DHT22;50545;56.064;26.178;2023-08-31T06:53:47;20.40;99.90
64226;DHT22;50545;56.064;26.178;2023-08-31T06:56:15;20.50;99.90
64226;DHT22;50545;56.064;26.178;2023-08-31T06:58:42;20.50;99.90
64226;DHT22;50545;56.064;26.178;2023-08-31T07:01:12;20.60;99.90
64226;DHT22;50545;56.064;26.178;2023-08-31T07:03:40;20.60;99.90
64226;DHT22;50545;56.064;26.178;2023-08-31T07:06:08;20.60;99.90
64226;DHT22;50545;56.064;26.178;2023-08-31T07:08:35;20.60;99.90
64226;DHT22;50545;56.064;26.178;2023-08-31T07:11:04;20.40;99.90
64226;DHT22;50545;56.064;26.178;2023-08-31T07:13:32;20.30;99.90
64226;DHT22;50545;56.064;26.178;2023-08-31T07:15:59;20.10;99.90
64226;DHT22;50545;56.064;26.178;2023-08-31T07:18:27;20.00;99.90
64226;DHT22;50545;56.064;26.178;2023-08-31T07:20:54;19.90;99.90
64226;DHT22;50545;56.064;26.178;2023-08-31T07:23:22;19.70;99.90
64226;DHT22;50545;56.064;26.178;2023-08-31T07:25:50;19.70;99.90
64226;DHT22;50545;56.064;26.178;2023-08-31T07:28:17;19.70;99.90
64226;DHT22;50545;56.064;26.178;2023-08-31T07:30:45;19.60;99.90
64226;DHT22;50545;56.064;26.178;2023-08-31T07:33:12;19.60;99.90
64226;DHT22;50545;56.064;26.178;2023-08-31T07:35:56;19.50;99.90
64226;DHT22;50545;56.064;26.178;2023-08-31T07:38:26;19.50;99.90
64226;DHT22;50545;56.064;26.178;2023-08-31T07:40:54;19.50;99.90
64226;DHT22;50545;56.064;26.178;2023-08-31T07:43:22;19.70;99.90
64226;DHT22;50545;56.064;26.178;2023-08-31T07:45:49;19.90;99.90
64226;DHT22;50545;56.064;26.178;2023-08-31T07:48:16;20.10;99.90
64226;DHT22;50545;56.064;26.178;2023-08-31T07:50:44;20.20;99.90
64226;DHT22;50545;56.064;26.178;2023-08-31T07:53:12;20.30;99.90
64226;DHT22;50545;56.064;26.178;2023-08-31T07:55:40;20.30;99.90
64226;DHT22;50545;56.064;26.178;2023-08-31T07:58:08;20.20;99.90
64226;DHT22;50545;56.064;26.178;2023-08-31T08:00:35;20.20;99.70
64226;DHT22;50545;56.064;26.178;2023-08-31T08:03:03;20.00;99.90
64226;DHT22;50545;56.064;26.178;2023-08-31T08:05:31;20.00;99.90
64226;DHT22;50545;56.064;26.178;2023-08-31T08:07:58;20.00;99.90
64226;DHT22;50545;56.064;26.178;2023-08-31T08:10:27;20.00;99.90
64226;DHT22;50545;56.064;26.178;2023-08-31T08:12:54;20.10;99.90
64226;DHT22;50545;56.064;26.178;2023-08-31T08:15:23;20.10;99.90
64226;DHT22;50545;56.064;26.178;2023-08-31T08:17:51;20.30;99.90
64226;DHT22;50545;56.064;26.178;2023-08-31T08:20:20;20.40;99.90
64226;DHT22;50545;56.064;26.178;2023-08-31T08:22:48;20.50;99.90
64226;DHT22;50545;56.064;26.178;2023-08-31T08:25:20;20.60;99.90
64226;DHT22;50545;56.064;26.178;2023-08-31T08:27:47;20.60;99.90
64226;DHT22;50545;56.064;26.178;2023-08-31T08:30:15;20.60;99.90
64226;DHT22;50545;56.064;26.178;2023-08-31T08:32:43;20.70;99.50
64226;DHT22;50545;56.064;26.178;2023-08-31T08:35:10;20.80;99.90
64226;DHT22;50545;56.064;26.178;2023-08-31T08:37:38;20.90;99.90
64226;DHT22;50545;56.064;26.178;2023-08-31T08:40:06;21.00;99.90
64226;DHT22;50545;56.064;26.178;2023-08-31T08:42:43;21.00;99.70
64226;DHT22;50545;56.064;26.178;2023-08-31T08:45:14;21.00;99.00
64226;DHT22;50545;56.064;26.178;2023-08-31T08:47:46;21.00;99.20
64226;DHT22;50545;56.064;26.178;2023-08-31T08:50:14;21.00;99.50
64226;DHT22;50545;56.064;26.178;2023-08-31T08:52:43;21.10;99.50
64226;DHT22;50545;56.064;26.178;2023-08-31T08:55:11;21.10;99.80
64226;DHT22;50545;56.064;26.178;2023-08-31T08:57:39;21.10;99.40
64226;DHT22;50545;56.064;26.178;2023-08-31T09:00:07;21.10;98.90
64226;DHT22;50545;56.064;26.178;2023-08-31T09:02:35;21.00;99.00
64226;DHT22;50545;56.064;26.178;2023-08-31T09:05:03;21.00;99.10
64226;DHT22;50545;56.064;26.178;2023-08-31T09:07:34;21.00;99.40
64226;DHT22;50545;56.064;26.178;2023-08-31T09:10:04;21.00;99.30
64226;DHT22;50545;56.064;26.178;2023-08-31T09:12:36;21.10;99.60
64226;DHT22;50545;56.064;26.178;2023-08-31T09:15:04;21.10;98.60
64226;DHT22;50545;56.064;26.178;2023-08-31T09:17:42;21.10;98.90
64226;DHT22;50545;56.064;26.178;2023-08-31T09:20:14;21.10;98.60
64226;DHT22;50545;56.064;26.178;2023-08-31T09:22:42;21.20;98.70
64226;DHT22;50545;56.064;26.178;2023-08-31T09:25:12;21.20;98.90
64226;DHT22;50545;56.064;26.178;2023-08-31T09:27:39;21.20;98.90
64226;DHT22;50545;56.064;26.178;2023-08-31T09:30:07;21.30;99.00
64226;DHT22;50545;56.064;26.178;2023-08-31T09:32:35;21.50;99.10
64226;DHT22;50545;56.064;26.178;2023-08-31T09:35:03;21.60;99.20
64226;DHT22;50545;56.064;26.178;2023-08-31T09:37:59;21.70;98.60
64226;DHT22;50545;56.064;26.178;2023-08-31T09:40:26;21.80;98.40
64226;DHT22;50545;56.064;26.178;2023-08-31T09:42:54;21.80;98.10
64226;DHT22;50545;56.064;26.178;2023-08-31T09:45:30;21.90;97.90
64226;DHT22;50545;56.064;26.178;2023-08-31T09:48:14;21.90;97.50
64226;DHT22;50545;56.064;26.178;2023-08-31T09:50:44;22.00;97.70
64226;DHT22;50545;56.064;26.178;2023-08-31T09:53:16;22.10;96.20
64226;DHT22;50545;56.064;26.178;2023-08-31T09:55:44;22.20;96.90
64226;DHT22;50545;56.064;26.178;2023-08-31T09:58:17;22.40;97.20
64226;DHT22;50545;56.064;26.178;2023-08-31T10:00:46;22.50;97.30
64226;DHT22;50545;56.064;26.178;2023-08-31T10:03:15;22.60;96.40
64226;DHT22;50545;56.064;26.178;2023-08-31T10:05:47;22.70;95.30
64226;DHT22;50545;56.064;26.178;2023-08-31T10:08:15;22.70;95.10
64226;DHT22;50545;56.064;26.178;2023-08-31T10:10:44;22.70;94.60
64226;DHT22;50545;56.064;26.178;2023-08-31T10:13:13;22.70;94.50
64226;DHT22;50545;56.064;26.178;2023-08-31T10:15:43;22.70;94.60
64226;DHT22;50545;56.064;26.178;2023-08-31T10:18:11;22.80;94.00
64226;DHT22;50545;56.064;26.178;2023-08-31T10:20:44;22.80;94.90
64226;DHT22;50545;56.064;26.178;2023-08-31T10:23:13;22.80;94.80
64226;DHT22;50545;56.064;26.178;2023-08-31T10:28:26;23.10;94.20
64226;DHT22;50545;56.064;26.178;2023-08-31T10:33:44;23.30;92.90
64226;DHT22;50545;56.064;26.178;2023-08-31T10:36:16;23.20;93.10
64226;DHT22;50545;56.064;26.178;2023-08-31T10:38:46;23.20;94.10
64226;DHT22;50545;56.064;26.178;2023-08-31T10:43:50;23.20;93.90
64226;DHT22;50545;56.064;26.178;2023-08-31T10:46:42;23.30;94.00
64226;DHT22;50545;56.064;26.178;2023-08-31T10:51:42;23.40;93.10
64226;DHT22;50545;56.064;26.178;2023-08-31T10:54:31;23.40;93.10
64226;DHT22;50545;56.064;26.178;2023-08-31T10:57:04;23.40;91.50
64226;DHT22;50545;56.064;26.178;2023-08-31T10:59:49;23.40;92.50
64226;DHT22;50545;56.064;26.178;2023-08-31T11:02:33;23.30;92.70
64226;DHT22;50545;56.064;26.178;2023-08-31T11:07:41;23.40;94.30
64226;DHT22;50545;56.064;26.178;2023-08-31T11:10:14;23.60;93.60
64226;DHT22;50545;56.064;26.178;2023-08-31T11:12:43;23.80;92.80
64226;DHT22;50545;56.064;26.178;2023-08-31T11:15:12;23.90;92.30
64226;DHT22;50545;56.064;26.178;2023-08-31T11:17:42;24.00;92.90
64226;DHT22;50545;56.064;26.178;2023-08-31T11:20:18;24.10;92.40
64226;DHT22;50545;56.064;26.178;2023-08-31T11:22:47;24.10;91.20
64226;DHT22;50545;56.064;26.178;2023-08-31T11:25:17;24.00;91.80
64226;DHT22;50545;56.064;26.178;2023-08-31T11:27:59;23.90;91.60
64226;DHT22;50545;56.064;26.178;2023-08-31T11:30:31;23.80;91.70
64226;DHT22;50545;56.064;26.178;2023-08-31T11:33:11;23.70;91.80
64226;DHT22;50545;56.064;26.178;2023-08-31T11:35:43;23.70;92.50
64226;DHT22;50545;56.064;26.178;2023-08-31T11:38:12;23.60;91.60
64226;DHT22;50545;56.064;26.178;2023-08-31T11:40:41;23.50;92.60
64226;DHT22;50545;56.064;26.178;2023-08-31T11:43:08;23.50;91.60
64226;DHT22;50545;56.064;26.178;2023-08-31T11:45:38;23.50;92.70
64226;DHT22;50545;56.064;26.178;2023-08-31T11:48:06;23.40;93.00
64226;DHT22;50545;56.064;26.178;2023-08-31T11:50:35;23.40;92.60
64226;DHT22;50545;56.064;26.178;2023-08-31T11:53:04;23.30;92.60
64226;DHT22;50545;56.064;26.178;2023-08-31T11:55:33;23.20;92.50
64226;DHT22;50545;56.064;26.178;2023-08-31T11:58:00;23.10;93.30
64226;DHT22;50545;56.064;26.178;2023-08-31T12:00:28;23.10;94.00
64226;DHT22;50545;56.064;26.178;2023-08-31T12:03:00;23.20;94.00
64226;DHT22;50545;56.064;26.178;2023-08-31T12:05:29;23.20;93.50
64226;DHT22;50545;56.064;26.178;2023-08-31T12:07:57;23.30;93.80
64226;DHT22;50545;56.064;26.178;2023-08-31T12:10:25;23.30;93.60
64226;DHT22;50545;56.064;26.178;2023-08-31T12:12:53;23.30;93.30
64226;DHT22;50545;56.064;26.178;2023-08-31T12:15:23;23.30;93.00
64226;DHT22;50545;56.064;26.178;2023-08-31T12:17:57;23.30;93.20
64226;DHT22;50545;56.064;26.178;2023-08-31T12:20:25;23.40;93.30
64226;DHT22;50545;56.064;26.178;2023-08-31T12:22:56;23.50;93.20
64226;DHT22;50545;56.064;26.178;2023-08-31T12:25:23;23.60;93.10
64226;DHT22;50545;56.064;26.178;2023-08-31T12:27:51;23.70;93.00
64226;DHT22;50545;56.064;26.178;2023-08-31T12:30:18;23.80;93.40
64226;DHT22;50545;56.064;26.178;2023-08-31T12:32:46;23.80;93.50
64226;DHT22;50545;56.064;26.178;2023-08-31T12:35:14;23.90;92.70
64226;DHT22;50545;56.064;26.178;2023-08-31T12:37:41;24.00;92.30
64226;DHT22;50545;56.064;26.178;2023-08-31T12:40:09;23.90;92.80
64226;DHT22;50545;56.064;26.178;2023-08-31T12:42:37;23.90;93.00
64226;DHT22;50545;56.064;26.178;2023-08-31T12:45:05;23.90;91.50
64226;DHT22;50545;56.064;26.178;2023-08-31T12:47:34;23.70;91.40
64226;DHT22;50545;56.064;26.178;2023-08-31T12:50:01;23.60;92.80
64226;DHT22;50545;56.064;26.178;2023-08-31T12:52:30;23.50;93.00
64226;DHT22;50545;56.064;26.178;2023-08-31T12:54:57;23.50;93.40
64226;DHT22;50545;56.064;26.178;2023-08-31T12:57:25;23.40;93.00
64226;DHT22;50545;56.064;26.178;2023-08-31T12:59:52;23.40;93.10
64226;DHT22;50545;56.064;26.178;2023-08-31T13:02:19;23.30;93.60
64226;DHT22;50545;56.064;26.178;2023-08-31T13:04:47;23.30;94.10
64226;DHT22;50545;56.064;26.178;2023-08-31T13:07:15;23.30;94.30
64226;DHT22;50545;56.064;26.178;2023-08-31T13:09:42;23.30;94.30
64226;DHT22;50545;56.064;26.178;2023-08-31T13:12:12;23.20;93.70
64226;DHT22;50545;56.064;26.178;2023-08-31T13:14:40;23.20;93.90
64226;DHT22;50545;56.064;26.178;2023-08-31T13:17:07;23.10;93.80
64226;DHT22;50545;56.064;26.178;2023-08-31T13:19:35;23.10;93.70
64226;DHT22;50545;56.064;26.178;2023-08-31T13:22:02;23.00;94.20
64226;DHT22;50545;56.064;26.178;2023-08-31T13:24:30;22.90;94.20
64226;DHT22;50545;56.064;26.178;2023-08-31T13:26:57;22.90;94.30
64226;DHT22;50545;56.064;26.178;2023-08-31T13:29:25;22.80;94.60
64226;DHT22;50545;56.064;26.178;2023-08-31T13:31:52;22.80;94.90
64226;DHT22;50545;56.064;26.178;2023-08-31T13:34:20;22.80;94.80
64226;DHT22;50545;56.064;26.178;2023-08-31T13:36:47;22.70;94.90
64226;DHT22;50545;56.064;26.178;2023-08-31T13:39:15;22.70;95.20
64226;DHT22;50545;56.064;26.178;2023-08-31T13:41:43;22.60;95.50
64226;DHT22;50545;56.064;26.178;2023-08-31T13:44:13;22.60;95.70
64226;DHT22;50545;56.064;26.178;2023-08-31T13:46:40;22.50;96.00
64226;DHT22;50545;56.064;26.178;2023-08-31T13:49:08;22.50;96.00
64226;DHT22;50545;56.064;26.178;2023-08-31T13:51:35;22.40;96.10
64226;DHT22;50545;56.064;26.178;2023-08-31T13:54:03;22.30;96.10
64226;DHT22;50545;56.064;26.178;2023-08-31T13:56:34;22.20;96.60
64226;DHT22;50545;56.064;26.178;2023-08-31T13:59:01;22.20;96.50
64226;DHT22;50545;56.064;26.178;2023-08-31T14:01:30;22.10;96.50
64226;DHT22;50545;56.064;26.178;2023-08-31T14:03:57;22.00;96.60
64226;DHT22;50545;56.064;26.178;2023-08-31T14:06:25;22.00;96.90
64226;DHT22;50545;56.064;26.178;2023-08-31T14:08:52;22.00;97.20
64226;DHT22;50545;56.064;26.178;2023-08-31T14:11:20;21.90;97.70
64226;DHT22;50545;56.064;26.178;2023-08-31T14:13:48;21.90;97.80
64226;DHT22;50545;56.064;26.178;2023-08-31T14:16:16;21.90;98.10
64226;DHT22;50545;56.064;26.178;2023-08-31T14:18:44;21.90;98.60
64226;DHT22;50545;56.064;26.178;2023-08-31T14:21:16;21.90;98.90
64226;DHT22;50545;56.064;26.178;2023-08-31T14:23:43;21.90;99.10
64226;DHT22;50545;56.064;26.178;2023-08-31T14:26:13;21.90;98.60
64226;DHT22;50545;56.064;26.178;2023-08-31T14:28:40;21.80;98.60
64226;DHT22;50545;56.064;26.178;2023-08-31T14:31:08;21.80;99.10
64226;DHT22;50545;56.064;26.178;2023-08-31T14:33:36;21.70;99.50
64226;DHT22;50545;56.064;26.178;2023-08-31T14:36:04;21.60;99.90
64226;DHT22;50545;56.064;26.178;2023-08-31T14:38:31;21.60;99.90
64226;DHT22;50545;56.064;26.178;2023-08-31T14:40:59;21.50;99.90
64226;DHT22;50545;56.064;26.178;2023-08-31T14:43:26;21.50;99.90
64226;DHT22;50545;56.064;26.178;2023-08-31T14:45:54;21.40;99.90
64226;DHT22;50545;56.064;26.178;2023-08-31T14:48:21;21.30;99.90
64226;DHT22;50545;56.064;26.178;2023-08-31T14:50:49;21.20;99.90
64226;DHT22;50545;56.064;26.178;2023-08-31T14:53:17;21.10;99.90
64226;DHT22;50545;56.064;26.178;2023-08-31T14:55:51;21.00;99.90
64226;DHT22;50545;56.064;26.178;2023-08-31T14:58:19;20.90;99.90
64226;DHT22;50545;56.064;26.178;2023-08-31T15:00:48;20.80;99.90
64226;DHT22;50545;56.064;26.178;2023-08-31T15:03:16;20.70;99.90
64226;DHT22;50545;56.064;26.178;2023-08-31T15:05:49;20.60;99.90
64226;DHT22;50545;56.064;26.178;2023-08-31T15:08:17;20.50;99.90
64226;DHT22;50545;56.064;26.178;2023-08-31T15:10:45;20.40;99.90
64226;DHT22;50545;56.064;26.178;2023-08-31T15:13:15;20.30;99.90
64226;DHT22;50545;56.064;26.178;2023-08-31T15:15:44;20.20;99.90
64226;DHT22;50545;56.064;26.178;2023-08-31T15:18:14;20.10;99.90
64226;DHT22;50545;56.064;26.178;2023-08-31T15:20:43;19.90;99.90
64226;DHT22;50545;56.064;26.178;2023-08-31T15:23:10;19.70;99.90
64226;DHT22;50545;56.064;26.178;2023-08-31T15:25:38;19.60;99.90
64226;DHT22;50545;56.064;26.178;2023-08-31T15:28:05;19.50;99.90
64226;DHT22;50545;56.064;26.178;2023-08-31T15:30:34;19.40;99.90
64226;DHT22;50545;56.064;26.178;2023-08-31T15:33:02;19.30;99.90
64226;DHT22;50545;56.064;26.178;2023-08-31T15:35:31;19.20;99.90
64226;DHT22;50545;56.064;26.178;2023-08-31T15:37:59;19.10;99.90
64226;DHT22;50545;56.064;26.178;2023-08-31T15:40:27;19.10;99.90
64226;DHT22;50545;56.064;26.178;2023-08-31T15:42:54;19.10;99.90
64226;DHT22;50545;56.064;26.178;2023-08-31T15:45:22;19.00;99.90
64226;DHT22;50545;56.064;26.178;2023-08-31T15:47:50;19.00;99.90